sensor_id;sensor_type;location;lat;lon;timestamp;pressure;altitude;pressure_sealevel;temperature;humidity
62847;BME280;49477;35.676;139.586;2023-08-08T00:01:14;100403.30;;;32.54;55.27
62847;BME280;49477;35.676;139.586;2023-08-08T00:03:43;100406.94;;;32.90;54.19
62847;BME280;49477;35.676;139.586;2023-08-08T00:06:13;100405.05;;;33.04;54.84
62847;BME280;49477;35.676;139.586;2023-08-08T00:08:43;100403.66;;;32.73;55.25
62847;BME280;49477;35.676;139.586;2023-08-08T00:11:12;100407.06;;;32.80;55.11
62847;BME280;49477;35.676;139.586;2023-08-08T00:13:42;100410.67;;;32.92;54.56
62847;BME280;49477;35.676;139.586;2023-08-08T00:16:11;100412.55;;;32.88;52.67
62847;BME280;49477;35.676;139.586;2023-08-08T00:18:41;100417.03;;;33.21;53.04
62847;BME280;49477;35.676;139.586;2023-08-08T00:21:10;100419.23;;;32.96;53.49
62847;BME280;49477;35.676;139.586;2023-08-08T00:23:40;100415.31;;;33.34;52.72
62847;BME280;49477;35.676;139.586;2023-08-08T00:26:09;100411.58;;;33.75;53.14
62847;BME280;49477;35.676;139.586;2023-08-08T00:28:38;100411.88;;;33.49;52.26
62847;BME280;49477;35.676;139.586;2023-08-08T00:31:08;100411.54;;;33.67;50.98
62847;BME280;49477;35.676;139.586;2023-08-08T00:33:37;100406.85;;;33.33;50.91
62847;BME280;49477;35.676;139.586;2023-08-08T00:36:07;100411.84;;;33.66;50.63
62847;BME280;49477;35.676;139.586;2023-08-08T00:38:36;100413.97;;;33.66;48.98
62847;BME280;49477;35.676;139.586;2023-08-08T00:41:06;100413.20;;;33.83;49.50
62847;BME280;49477;35.676;139.586;2023-08-08T00:43:35;100414.26;;;33.66;49.79
62847;BME280;49477;35.676;139.586;2023-08-08T00:46:05;100414.72;;;33.24;51.47
62847;BME280;49477;35.676;139.586;2023-08-08T00:48:34;100414.03;;;33.20;50.52
62847;BME280;49477;35.676;139.586;2023-08-08T00:51:04;100416.71;;;33.42;47.97
62847;BME280;49477;35.676;139.586;2023-08-08T00:53:34;100416.70;;;34.23;46.55
62847;BME280;49477;35.676;139.586;2023-08-08T00:56:03;100423.54;;;33.58;46.53
62847;BME280;49477;35.676;139.586;2023-08-08T00:58:32;100420.89;;;33.31;48.95
62847;BME280;49477;35.676;139.586;2023-08-08T01:01:02;100420.06;;;33.94;48.06
62847;BME280;49477;35.676;139.586;2023-08-08T01:03:32;100418.55;;;34.00;44.26
62847;BME280;49477;35.676;139.586;2023-08-08T01:06:05;100422.01;;;33.79;46.46
62847;BME280;49477;35.676;139.586;2023-08-08T01:08:43;100415.39;;;34.33;45.10
62847;BME280;49477;35.676;139.586;2023-08-08T01:11:15;100409.47;;;34.10;46.12
62847;BME280;49477;35.676;139.586;2023-08-08T01:13:45;100409.56;;;33.92;45.77
62847;BME280;49477;35.676;139.586;2023-08-08T01:16:15;100409.28;;;34.01;45.15
62847;BME280;49477;35.676;139.586;2023-08-08T01:18:45;100408.09;;;34.31;45.57
62847;BME280;49477;35.676;139.586;2023-08-08T01:21:16;100406.51;;;33.94;45.20
62847;BME280;49477;35.676;139.586;2023-08-08T01:23:51;100402.95;;;34.20;43.72
62847;BME280;49477;35.676;139.586;2023-08-08T01:26:22;100402.96;;;34.21;44.64
62847;BME280;49477;35.676;139.586;2023-08-08T01:28:54;100392.90;;;34.53;39.45
62847;BME280;49477;35.676;139.586;2023-08-08T01:31:24;100390.93;;;34.74;40.59
62847;BME280;49477;35.676;139.586;2023-08-08T01:33:53;100394.97;;;34.53;41.81
62847;BME280;49477;35.676;139.586;2023-08-08T01:36:27;100393.43;;;34.69;39.74
62847;BME280;49477;35.676;139.586;2023-08-08T01:39:00;100388.46;;;33.95;43.78
62847;BME280;49477;35.676;139.586;2023-08-08T01:41:31;100385.24;;;34.18;42.97
62847;BME280;49477;35.676;139.586;2023-08-08T01:44:03;100382.71;;;34.80;42.60
62847;BME280;49477;35.676;139.586;2023-08-08T01:46:38;100384.16;;;34.73;38.89
62847;BME280;49477;35.676;139.586;2023-08-08T01:49:08;100376.88;;;34.63;33.54
62847;BME280;49477;35.676;139.586;2023-08-08T01:51:38;100373.79;;;34.93;41.14
62847;BME280;49477;35.676;139.586;2023-08-08T01:54:07;100376.40;;;34.72;38.58
62847;BME280;49477;35.676;139.586;2023-08-08T01:56:37;100371.99;;;35.05;33.43
62847;BME280;49477;35.676;139.586;2023-08-08T01:59:06;100370.98;;;35.16;30.97
62847;BME280;49477;35.676;139.586;2023-08-08T02:01:36;100368.63;;;35.12;33.25
62847;BME280;49477;35.676;139.586;2023-08-08T02:04:05;100365.88;;;34.31;41.45
62847;BME280;49477;35.676;139.586;2023-08-08T02:06:35;100369.17;;;34.97;39.53
62847;BME280;49477;35.676;139.586;2023-08-08T02:09:04;100364.05;;;34.98;37.91
62847;BME280;49477;35.676;139.586;2023-08-08T02:11:34;100360.17;;;35.13;39.21
62847;BME280;49477;35.676;139.586;2023-08-08T02:14:03;100357.06;;;34.82;36.46
62847;BME280;49477;35.676;139.586;2023-08-08T02:16:33;100355.39;;;34.79;40.83
62847;BME280;49477;35.676;139.586;2023-08-08T02:19:02;100355.41;;;35.08;39.28
62847;BME280;49477;35.676;139.586;2023-08-08T02:21:33;100354.72;;;34.85;40.05
62847;BME280;49477;35.676;139.586;2023-08-08T02:24:03;100351.48;;;35.00;36.70
62847;BME280;49477;35.676;139.586;2023-08-08T02:26:33;100350.74;;;35.65;39.40
62847;BME280;49477;35.676;139.586;2023-08-08T02:29:02;100349.89;;;35.21;39.46
62847;BME280;49477;35.676;139.586;2023-08-08T02:31:32;100350.61;;;35.43;39.76
62847;BME280;49477;35.676;139.586;2023-08-08T02:34:01;100348.00;;;35.65;39.86
62847;BME280;49477;35.676;139.586;2023-08-08T02:36:31;100345.88;;;35.36;38.66
62847;BME280;49477;35.676;139.586;2023-08-08T02:39:01;100348.32;;;34.93;40.85
62847;BME280;49477;35.676;139.586;2023-08-08T02:41:31;100349.62;;;34.89;40.38
62847;BME280;49477;35.676;139.586;2023-08-08T02:44:00;100346.45;;;35.07;40.26
62847;BME280;49477;35.676;139.586;2023-08-08T02:46:29;100342.11;;;35.22;39.81
62847;BME280;49477;35.676;139.586;2023-08-08T02:48:59;100339.95;;;35.20;39.31
62847;BME280;49477;35.676;139.586;2023-08-08T02:51:29;100337.50;;;35.69;38.79
62847;BME280;49477;35.676;139.586;2023-08-08T02:53:58;100338.41;;;35.83;38.56
62847;BME280;49477;35.676;139.586;2023-08-08T02:56:28;100334.99;;;35.98;38.43
62847;BME280;49477;35.676;139.586;2023-08-08T02:58:58;100334.52;;;35.68;39.19
62847;BME280;49477;35.676;139.586;2023-08-08T03:01:28;100336.93;;;35.99;39.17
62847;BME280;49477;35.676;139.586;2023-08-08T03:03:57;100329.77;;;35.83;38.53
62847;BME280;49477;35.676;139.586;2023-08-08T03:06:32;100331.61;;;36.17;38.48
62847;BME280;49477;35.676;139.586;2023-08-08T03:09:01;100332.89;;;35.93;38.22
62847;BME280;49477;35.676;139.586;2023-08-08T03:11:31;100329.60;;;36.24;38.82
62847;BME280;49477;35.676;139.586;2023-08-08T03:14:00;100330.51;;;35.62;38.72
62847;BME280;49477;35.676;139.586;2023-08-08T03:16:30;100329.55;;;36.01;38.81
62847;BME280;49477;35.676;139.586;2023-08-08T03:18:59;100330.02;;;35.90;38.53
62847;BME280;49477;35.676;139.586;2023-08-08T03:21:29;100327.30;;;36.31;38.33
62847;BME280;49477;35.676;139.586;2023-08-08T03:23:58;100326.45;;;36.04;38.19
62847;BME280;49477;35.676;139.586;2023-08-08T03:26:28;100322.67;;;36.32;38.18
62847;BME280;49477;35.676;139.586;2023-08-08T03:28:57;100319.27;;;36.03;37.92
62847;BME280;49477;35.676;139.586;2023-08-08T03:31:27;100320.02;;;36.01;38.37
62847;BME280;49477;35.676;139.586;2023-08-08T03:33:56;100316.74;;;36.10;38.08
62847;BME280;49477;35.676;139.586;2023-08-08T03:36:26;100316.31;;;36.48;37.96
62847;BME280;49477;35.676;139.586;2023-08-08T03:38:56;100317.26;;;36.27;38.03
62847;BME280;49477;35.676;139.586;2023-08-08T03:41:26;100314.11;;;36.51;38.14
62847;BME280;49477;35.676;139.586;2023-08-08T03:43:55;100310.00;;;36.20;38.22
62847;BME280;49477;35.676;139.586;2023-08-08T03:46:25;100309.15;;;36.44;38.22
62847;BME280;49477;35.676;139.586;2023-08-08T03:48:54;100304.39;;;36.25;38.12
62847;BME280;49477;35.676;139.586;2023-08-08T03:51:24;100303.87;;;35.99;38.13
62847;BME280;49477;35.676;139.586;2023-08-08T03:53:54;100306.87;;;36.35;38.18
62847;BME280;49477;35.676;139.586;2023-08-08T03:56:23;100306.88;;;36.28;38.18
62847;BME280;49477;35.676;139.586;2023-08-08T03:58:52;100303.66;;;36.41;37.68
62847;BME280;49477;35.676;139.586;2023-08-08T04:01:22;100308.25;;;36.39;37.73
62847;BME280;49477;35.676;139.586;2023-08-08T04:03:51;100304.10;;;36.50;38.10
62847;BME280;49477;35.676;139.586;2023-08-08T04:06:21;100302.09;;;36.09;37.93
62847;BME280;49477;35.676;139.586;2023-08-08T04:08:50;100297.34;;;36.29;37.62
62847;BME280;49477;35.676;139.586;2023-08-08T04:11:20;100293.95;;;36.60;37.81
62847;BME280;49477;35.676;139.586;2023-08-08T04:13:49;100290.04;;;36.05;37.84
62847;BME280;49477;35.676;139.586;2023-08-08T04:16:19;100286.89;;;36.26;37.86
62847;BME280;49477;35.676;139.586;2023-08-08T04:18:48;100283.40;;;35.92;37.41
62847;BME280;49477;35.676;139.586;2023-08-08T04:21:17;100284.81;;;36.37;37.46
62847;BME280;49477;35.676;139.586;2023-08-08T04:23:47;100277.09;;;36.04;37.11
62847;BME280;49477;35.676;139.586;2023-08-08T04:26:16;100275.52;;;36.65;36.89
62847;BME280;49477;35.676;139.586;2023-08-08T04:28:47;100278.91;;;36.27;36.68
62847;BME280;49477;35.676;139.586;2023-08-08T04:31:15;100280.74;;;36.46;36.69
62847;BME280;49477;35.676;139.586;2023-08-08T04:33:45;100281.26;;;36.32;36.62
62847;BME280;49477;35.676;139.586;2023-08-08T04:36:14;100275.84;;;36.60;36.07
62847;BME280;49477;35.676;139.586;2023-08-08T04:38:44;100277.25;;;36.65;36.29
62847;BME280;49477;35.676;139.586;2023-08-08T04:41:13;100276.53;;;36.33;36.49
62847;BME280;49477;35.676;139.586;2023-08-08T04:43:43;100270.69;;;36.70;36.46
62847;BME280;49477;35.676;139.586;2023-08-08T04:46:12;100273.26;;;36.75;36.51
62847;BME280;49477;35.676;139.586;2023-08-08T04:48:41;100271.51;;;36.60;36.44
62847;BME280;49477;35.676;139.586;2023-08-08T04:51:11;100272.21;;;36.74;36.37
62847;BME280;49477;35.676;139.586;2023-08-08T04:53:40;100266.95;;;37.03;36.35
62847;BME280;49477;35.676;139.586;2023-08-08T04:56:10;100265.59;;;36.91;36.33
62847;BME280;49477;35.676;139.586;2023-08-08T04:58:39;100269.28;;;36.83;36.24
62847;BME280;49477;35.676;139.586;2023-08-08T05:01:09;100272.55;;;36.88;35.88
62847;BME280;49477;35.676;139.586;2023-08-08T05:03:38;100269.99;;;36.79;35.72
62847;BME280;49477;35.676;139.586;2023-08-08T05:06:08;100272.31;;;36.89;35.82
62847;BME280;49477;35.676;139.586;2023-08-08T05:08:37;100273.88;;;37.15;35.93
62847;BME280;49477;35.676;139.586;2023-08-08T05:11:07;100277.38;;;36.96;35.91
62847;BME280;49477;35.676;139.586;2023-08-08T05:13:36;100277.91;;;37.11;35.76
62847;BME280;49477;35.676;139.586;2023-08-08T05:16:06;100276.55;;;36.82;35.88
62847;BME280;49477;35.676;139.586;2023-08-08T05:18:35;100279.95;;;37.23;35.77
62847;BME280;49477;35.676;139.586;2023-08-08T05:21:04;100283.79;;;37.43;35.90
62847;BME280;49477;35.676;139.586;2023-08-08T05:23:34;100280.78;;;36.91;36.01
62847;BME280;49477;35.676;139.586;2023-08-08T05:26:03;100281.62;;;36.94;35.95
62847;BME280;49477;35.676;139.586;2023-08-08T05:28:33;100282.15;;;37.04;36.04
62847;BME280;49477;35.676;139.586;2023-08-08T05:31:03;100281.46;;;36.78;35.98
62847;BME280;49477;35.676;139.586;2023-08-08T05:33:32;100282.92;;;37.03;35.87
62847;BME280;49477;35.676;139.586;2023-08-08T05:36:01;100285.80;;;36.41;36.13
62847;BME280;49477;35.676;139.586;2023-08-08T05:38:31;100284.47;;;36.91;36.22
62847;BME280;49477;35.676;139.586;2023-08-08T05:41:00;100288.79;;;36.87;36.36
62847;BME280;49477;35.676;139.586;2023-08-08T05:43:30;100289.40;;;36.94;36.23
62847;BME280;49477;35.676;139.586;2023-08-08T05:45:59;100287.98;;;36.57;36.49
62847;BME280;49477;35.676;139.586;2023-08-08T05:48:28;100293.41;;;36.73;36.55
62847;BME280;49477;35.676;139.586;2023-08-08T05:50:58;100292.52;;;36.91;36.46
62847;BME280;49477;35.676;139.586;2023-08-08T05:53:27;100291.96;;;36.85;36.49
62847;BME280;49477;35.676;139.586;2023-08-08T05:55:57;100292.56;;;36.79;36.51
62847;BME280;49477;35.676;139.586;2023-08-08T05:58:26;100295.39;;;36.42;37.02
62847;BME280;49477;35.676;139.586;2023-08-08T06:00:55;100298.19;;;36.66;36.89
62847;BME280;49477;35.676;139.586;2023-08-08T06:03:24;100296.42;;;36.97;36.79
62847;BME280;49477;35.676;139.586;2023-08-08T06:05:54;100298.11;;;36.63;36.59
62847;BME280;49477;35.676;139.586;2023-08-08T06:08:23;100299.12;;;37.08;36.67
62847;BME280;49477;35.676;139.586;2023-08-08T06:10:53;100300.74;;;36.95;36.52
62847;BME280;49477;35.676;139.586;2023-08-08T06:13:23;100298.53;;;37.16;36.78
62847;BME280;49477;35.676;139.586;2023-08-08T06:15:52;100294.95;;;36.67;36.80
62847;BME280;49477;35.676;139.586;2023-08-08T06:18:22;100296.61;;;36.97;36.88
62847;BME280;49477;35.676;139.586;2023-08-08T06:20:51;100297.28;;;36.61;37.06
62847;BME280;49477;35.676;139.586;2023-08-08T06:23:21;100299.31;;;36.96;36.82
62847;BME280;49477;35.676;139.586;2023-08-08T06:25:50;100301.10;;;36.75;36.70
62847;BME280;49477;35.676;139.586;2023-08-08T06:28:20;100304.24;;;36.87;36.82
62847;BME280;49477;35.676;139.586;2023-08-08T06:30:49;100302.27;;;36.99;36.76
62847;BME280;49477;35.676;139.586;2023-08-08T06:33:19;100306.60;;;37.11;36.89
62847;BME280;49477;35.676;139.586;2023-08-08T06:35:49;100308.19;;;36.87;36.78
62847;BME280;49477;35.676;139.586;2023-08-08T06:38:18;100311.40;;;37.02;36.58
62847;BME280;49477;35.676;139.586;2023-08-08T06:40:48;100311.27;;;36.63;36.37
62847;BME280;49477;35.676;139.586;2023-08-08T06:43:17;100309.62;;;36.89;36.01
62847;BME280;49477;35.676;139.586;2023-08-08T06:45:46;100305.95;;;37.11;36.04
62847;BME280;49477;35.676;139.586;2023-08-08T06:48:15;100310.34;;;37.19;36.13
62847;BME280;49477;35.676;139.586;2023-08-08T06:50:44;100312.72;;;37.15;36.12
62847;BME280;49477;35.676;139.586;2023-08-08T06:53:14;100315.02;;;37.32;36.02
62847;BME280;49477;35.676;139.586;2023-08-08T06:55:44;100319.81;;;37.31;36.50
62847;BME280;49477;35.676;139.586;2023-08-08T06:58:13;100321.98;;;36.79;37.07
62847;BME280;49477;35.676;139.586;2023-08-08T07:00:43;100328.26;;;36.86;37.02
62847;BME280;49477;35.676;139.586;2023-08-08T07:03:12;100337.22;;;36.85;37.65
62847;BME280;49477;35.676;139.586;2023-08-08T07:05:42;100341.04;;;36.82;37.65
62847;BME280;49477;35.676;139.586;2023-08-08T07:08:11;100347.33;;;36.73;38.42
62847;BME280;49477;35.676;139.586;2023-08-08T07:10:40;100352.21;;;36.74;37.07
62847;BME280;49477;35.676;139.586;2023-08-08T07:13:09;100352.06;;;36.38;38.15
62847;BME280;49477;35.676;139.586;2023-08-08T07:15:39;100354.27;;;36.81;37.28
62847;BME280;49477;35.676;139.586;2023-08-08T07:18:07;100357.40;;;36.43;38.12
62847;BME280;49477;35.676;139.586;2023-08-08T07:20:37;100357.56;;;36.57;37.62
62847;BME280;49477;35.676;139.586;2023-08-08T07:23:07;100360.59;;;36.66;37.39
62847;BME280;49477;35.676;139.586;2023-08-08T07:25:36;100357.88;;;36.41;37.73
62847;BME280;49477;35.676;139.586;2023-08-08T07:28:06;100359.88;;;36.39;37.86
62847;BME280;49477;35.676;139.586;2023-08-08T07:30:35;100364.09;;;36.78;37.65
62847;BME280;49477;35.676;139.586;2023-08-08T07:33:05;100360.16;;;36.52;38.09
62847;BME280;49477;35.676;139.586;2023-08-08T07:35:35;100362.05;;;36.90;37.54
62847;BME280;49477;35.676;139.586;2023-08-08T07:38:04;100358.51;;;36.32;38.18
62847;BME280;49477;35.676;139.586;2023-08-08T07:40:33;100363.65;;;36.51;37.82
62847;BME280;49477;35.676;139.586;2023-08-08T07:43:03;100366.48;;;36.57;37.65
62847;BME280;49477;35.676;139.586;2023-08-08T07:45:32;100369.90;;;36.26;38.56
62847;BME280;49477;35.676;139.586;2023-08-08T07:48:02;100369.15;;;36.49;37.75
62847;BME280;49477;35.676;139.586;2023-08-08T07:50:31;100368.47;;;36.41;38.24
62847;BME280;49477;35.676;139.586;2023-08-08T07:53:01;100368.78;;;36.72;37.62
62847;BME280;49477;35.676;139.586;2023-08-08T07:55:30;100367.63;;;36.43;38.14
62847;BME280;49477;35.676;139.586;2023-08-08T07:58:00;100369.78;;;36.78;37.92
62847;BME280;49477;35.676;139.586;2023-08-08T08:00:29;100371.61;;;36.58;37.75
62847;BME280;49477;35.676;139.586;2023-08-08T08:02:59;100376.23;;;36.36;38.56
62847;BME280;49477;35.676;139.586;2023-08-08T08:05:27;100368.60;;;36.49;37.98
62847;BME280;49477;35.676;139.586;2023-08-08T08:07:57;100372.29;;;36.59;38.60
62847;BME280;49477;35.676;139.586;2023-08-08T08:10:26;100374.13;;;36.64;37.70
62847;BME280;49477;35.676;139.586;2023-08-08T08:12:56;100370.82;;;36.41;38.46
62847;BME280;49477;35.676;139.586;2023-08-08T08:15:25;100375.22;;;36.57;38.08
62847;BME280;49477;35.676;139.586;2023-08-08T08:17:55;100376.30;;;36.02;38.36
62847;BME280;49477;35.676;139.586;2023-08-08T08:20:24;100377.91;;;36.58;37.58
62847;BME280;49477;35.676;139.586;2023-08-08T08:22:54;100377.27;;;36.24;38.25
62847;BME280;49477;35.676;139.586;2023-08-08T08:25:23;100377.75;;;36.91;36.23
62847;BME280;49477;35.676;139.586;2023-08-08T08:27:53;100381.53;;;36.96;36.76
62847;BME280;49477;35.676;139.586;2023-08-08T08:30:23;100384.41;;;37.13;36.60
62847;BME280;49477;35.676;139.586;2023-08-08T08:32:52;100385.49;;;36.73;36.76
62847;BME280;49477;35.676;139.586;2023-08-08T08:35:21;100388.00;;;37.41;36.84
62847;BME280;49477;35.676;139.586;2023-08-08T08:37:51;100383.16;;;37.41;36.24
62847;BME280;49477;35.676;139.586;2023-08-08T08:40:20;100384.87;;;37.43;36.48
62847;BME280;49477;35.676;139.586;2023-08-08T08:42:50;100389.39;;;36.65;37.11
62847;BME280;49477;35.676;139.586;2023-08-08T08:45:21;100391.94;;;37.12;36.54
62847;BME280;49477;35.676;139.586;2023-08-08T08:47:55;100389.30;;;37.13;36.32
62847;BME280;49477;35.676;139.586;2023-08-08T08:50:27;100389.94;;;37.46;36.68
62847;BME280;49477;35.676;139.586;2023-08-08T08:53:01;100391.75;;;37.04;37.08
62847;BME280;49477;35.676;139.586;2023-08-08T08:55:30;100397.91;;;37.29;36.33
62847;BME280;49477;35.676;139.586;2023-08-08T08:58:00;100394.63;;;37.10;36.28
62847;BME280;49477;35.676;139.586;2023-08-08T09:00:31;100397.77;;;36.93;36.35
62847;BME280;49477;35.676;139.586;2023-08-08T09:03:02;100401.57;;;36.82;36.45
62847;BME280;49477;35.676;139.586;2023-08-08T09:05:33;100406.81;;;36.83;36.47
62847;BME280;49477;35.676;139.586;2023-08-08T09:08:02;100412.16;;;36.88;36.27
62847;BME280;49477;35.676;139.586;2023-08-08T09:10:33;100416.90;;;37.00;36.50
62847;BME280;49477;35.676;139.586;2023-08-08T09:13:02;100421.09;;;36.87;36.19
62847;BME280;49477;35.676;139.586;2023-08-08T09:15:32;100425.62;;;36.78;36.31
62847;BME280;49477;35.676;139.586;2023-08-08T09:18:02;100429.06;;;36.69;36.41
62847;BME280;49477;35.676;139.586;2023-08-08T09:20:32;100433.56;;;36.61;36.59
62847;BME280;49477;35.676;139.586;2023-08-08T09:23:01;100432.95;;;36.44;36.41
62847;BME280;49477;35.676;139.586;2023-08-08T09:25:31;100434.67;;;36.55;36.54
62847;BME280;49477;35.676;139.586;2023-08-08T09:28:00;100434.64;;;36.96;36.21
62847;BME280;49477;35.676;139.586;2023-08-08T09:30:30;100437.39;;;36.88;36.35
62847;BME280;49477;35.676;139.586;2023-08-08T09:33:00;100439.82;;;36.48;36.05
62847;BME280;49477;35.676;139.586;2023-08-08T09:35:30;100441.97;;;36.79;36.31
62847;BME280;49477;35.676;139.586;2023-08-08T09:38:00;100442.14;;;36.72;36.69
62847;BME280;49477;35.676;139.586;2023-08-08T09:40:29;100446.16;;;37.01;37.07
62847;BME280;49477;35.676;139.586;2023-08-08T09:42:59;100446.23;;;36.53;37.75
62847;BME280;49477;35.676;139.586;2023-08-08T09:45:35;100452.08;;;36.76;37.44
62847;BME280;49477;35.676;139.586;2023-08-08T09:48:06;100453.68;;;36.76;37.81
62847;BME280;49477;35.676;139.586;2023-08-08T09:50:37;100457.80;;;35.92;39.56
62847;BME280;49477;35.676;139.586;2023-08-08T09:53:06;100458.81;;;35.96;40.55
62847;BME280;49477;35.676;139.586;2023-08-08T09:55:36;100459.43;;;35.67;40.98
62847;BME280;49477;35.676;139.586;2023-08-08T09:58:06;100460.14;;;35.47;41.50
62847;BME280;49477;35.676;139.586;2023-08-08T10:00:35;100467.46;;;35.65;41.36
62847;BME280;49477;35.676;139.586;2023-08-08T10:03:07;100472.94;;;35.26;41.38
62847;BME280;49477;35.676;139.586;2023-08-08T10:05:36;100479.52;;;35.56;40.98
62847;BME280;49477;35.676;139.586;2023-08-08T10:08:06;100485.58;;;35.11;41.20
62847;BME280;49477;35.676;139.586;2023-08-08T10:10:35;100486.29;;;35.28;41.17
62847;BME280;49477;35.676;139.586;2023-08-08T10:13:05;100489.71;;;34.82;41.89
62847;BME280;49477;35.676;139.586;2023-08-08T10:15:38;100498.16;;;34.75;42.62
62847;BME280;49477;35.676;139.586;2023-08-08T10:18:09;100503.92;;;34.77;42.96
62847;BME280;49477;35.676;139.586;2023-08-08T10:20:38;100504.62;;;34.31;43.64
62847;BME280;49477;35.676;139.586;2023-08-08T10:23:08;100510.07;;;33.93;44.24
62847;BME280;49477;35.676;139.586;2023-08-08T10:25:37;100514.18;;;34.25;44.49
62847;BME280;49477;35.676;139.586;2023-08-08T10:28:15;100517.80;;;34.01;44.83
62847;BME280;49477;35.676;139.586;2023-08-08T10:30:46;100514.67;;;34.03;44.23
62847;BME280;49477;35.676;139.586;2023-08-08T10:33:18;100520.27;;;34.05;44.23
62847;BME280;49477;35.676;139.586;2023-08-08T10:36:05;100525.20;;;33.93;43.67
62847;BME280;49477;35.676;139.586;2023-08-08T10:38:43;100529.33;;;34.13;43.21
62847;BME280;49477;35.676;139.586;2023-08-08T10:41:13;100532.13;;;34.65;42.75
62847;BME280;49477;35.676;139.586;2023-08-08T10:43:50;100532.70;;;34.51;43.19
62847;BME280;49477;35.676;139.586;2023-08-08T10:46:25;100535.26;;;34.85;43.26
62847;BME280;49477;35.676;139.586;2023-08-08T10:48:56;100537.95;;;34.42;43.18
62847;BME280;49477;35.676;139.586;2023-08-08T10:51:36;100534.97;;;34.39;43.29
62847;BME280;49477;35.676;139.586;2023-08-08T10:54:09;100540.34;;;34.29;43.45
62847;BME280;49477;35.676;139.586;2023-08-08T10:56:48;100544.12;;;34.85;43.37
62847;BME280;49477;35.676;139.586;2023-08-08T10:59:18;100549.33;;;34.33;43.53
62847;BME280;49477;35.676;139.586;2023-08-08T11:01:49;100552.73;;;34.26;43.94
62847;BME280;49477;35.676;139.586;2023-08-08T11:04:22;100553.70;;;34.77;44.29
62847;BME280;49477;35.676;139.586;2023-08-08T11:06:53;100558.61;;;33.70;44.55
62847;BME280;49477;35.676;139.586;2023-08-08T11:09:23;100562.48;;;34.67;44.41
62847;BME280;49477;35.676;139.586;2023-08-08T11:11:52;100565.23;;;33.83;44.92
62847;BME280;49477;35.676;139.586;2023-08-08T11:14:22;100572.63;;;34.45;44.94
62847;BME280;49477;35.676;139.586;2023-08-08T11:16:53;100576.28;;;34.15;45.05
62847;BME280;49477;35.676;139.586;2023-08-08T11:19:22;100581.00;;;34.52;45.03
62847;BME280;49477;35.676;139.586;2023-08-08T11:21:52;100585.61;;;34.31;45.29
62847;BME280;49477;35.676;139.586;2023-08-08T11:24:21;100587.87;;;34.50;45.24
62847;BME280;49477;35.676;139.586;2023-08-08T11:26:57;100590.68;;;33.86;44.73
62847;BME280;49477;35.676;139.586;2023-08-08T11:29:27;100592.37;;;34.44;44.43
62847;BME280;49477;35.676;139.586;2023-08-08T11:31:57;100594.58;;;34.61;44.38
62847;BME280;49477;35.676;139.586;2023-08-08T11:34:31;100596.24;;;34.27;44.38
62847;BME280;49477;35.676;139.586;2023-08-08T11:37:01;100598.20;;;33.87;44.67
62847;BME280;49477;35.676;139.586;2023-08-08T11:39:31;100598.99;;;33.90;45.30
62847;BME280;49477;35.676;139.586;2023-08-08T11:42:01;100603.73;;;33.50;46.28
62847;BME280;49477;35.676;139.586;2023-08-08T11:44:30;100609.55;;;33.74;46.63
62847;BME280;49477;35.676;139.586;2023-08-08T11:47:02;100615.10;;;33.67;46.59
62847;BME280;49477;35.676;139.586;2023-08-08T11:49:37;100618.43;;;33.09;47.79
62847;BME280;49477;35.676;139.586;2023-08-08T11:52:07;100616.48;;;32.65;48.78
62847;BME280;49477;35.676;139.586;2023-08-08T11:54:38;100612.86;;;33.75;47.87
62847;BME280;49477;35.676;139.586;2023-08-08T11:57:07;100613.75;;;33.67;47.97
62847;BME280;49477;35.676;139.586;2023-08-08T11:59:38;100609.43;;;33.52;48.34
62847;BME280;49477;35.676;139.586;2023-08-08T12:02:07;100609.48;;;33.56;47.19
62847;BME280;49477;35.676;139.586;2023-08-08T12:04:37;100604.13;;;34.59;46.13
62847;BME280;49477;35.676;139.586;2023-08-08T12:07:07;100604.47;;;34.31;45.65
62847;BME280;49477;35.676;139.586;2023-08-08T12:09:37;100607.35;;;34.48;45.22
62847;BME280;49477;35.676;139.586;2023-08-08T12:12:08;100605.46;;;34.62;44.87
62847;BME280;49477;35.676;139.586;2023-08-08T12:14:38;100608.38;;;34.64;44.76
62847;BME280;49477;35.676;139.586;2023-08-08T12:17:07;100608.54;;;34.69;44.46
62847;BME280;49477;35.676;139.586;2023-08-08T12:19:38;100610.96;;;34.81;44.10
62847;BME280;49477;35.676;139.586;2023-08-08T12:22:13;100613.94;;;34.84;43.67
62847;BME280;49477;35.676;139.586;2023-08-08T12:24:43;100621.12;;;34.84;43.17
62847;BME280;49477;35.676;139.586;2023-08-08T12:27:13;100620.43;;;34.84;43.53
62847;BME280;49477;35.676;139.586;2023-08-08T12:29:42;100618.82;;;34.93;43.40
62847;BME280;49477;35.676;139.586;2023-08-08T12:32:11;100618.05;;;35.03;43.02
62847;BME280;49477;35.676;139.586;2023-08-08T12:34:41;100615.36;;;34.92;43.26
62847;BME280;49477;35.676;139.586;2023-08-08T12:37:11;100616.75;;;34.89;43.34
62847;BME280;49477;35.676;139.586;2023-08-08T12:39:40;100618.36;;;35.02;42.81
62847;BME280;49477;35.676;139.586;2023-08-08T12:42:10;100617.48;;;34.39;43.64
62847;BME280;49477;35.676;139.586;2023-08-08T12:44:39;100617.77;;;34.67;43.47